createdAt,value
2023-07-02T00:00:35.269Z,0
2023-07-02T00:05:36.217Z,0
2023-07-02T00:10:37.221Z,0
2023-07-02T00:15:38.729Z,0
2023-07-02T00:20:40.083Z,0
2023-07-02T00:25:43.826Z,0
2023-07-02T00:30:44.805Z,0
2023-07-02T00:35:45.812Z,0
2023-07-02T00:40:47.493Z,0
2023-07-02T00:45:48.874Z,0
2023-07-02T00:50:50.414Z,0
2023-07-02T00:55:54.624Z,0
2023-07-02T01:00:56.636Z,0
2023-07-02T01:05:59.628Z,0
2023-07-02T01:11:00.538Z,0
2023-07-02T01:16:04.431Z,0
2023-07-02T01:21:05.242Z,0
2023-07-02T01:26:06.149Z,0
2023-07-02T01:31:07.055Z,0
2023-07-02T01:36:07.793Z,0
2023-07-02T01:41:08.716Z,0
2023-07-02T01:46:09.796Z,0
2023-07-02T01:51:11.318Z,0
2023-07-02T01:56:12.100Z,0
2023-07-02T02:01:13.346Z,0
2023-07-02T02:06:14.237Z,0
2023-07-02T02:11:14.967Z,0
2023-07-02T02:16:15.965Z,0
2023-07-02T02:21:17.117Z,0
2023-07-02T02:26:17.966Z,0
2023-07-02T02:31:19.196Z,0
2023-07-02T02:36:20.120Z,0
2023-07-02T02:41:21.182Z,0
2023-07-02T02:51:23.000Z,0
2023-07-02T02:56:23.851Z,0
2023-07-02T03:01:24.848Z,0
2023-07-02T03:06:25.703Z,0
2023-07-02T03:11:26.556Z,0
2023-07-02T03:16:27.262Z,0
2023-07-02T03:21:27.996Z,0
2023-07-02T03:26:28.720Z,0
2023-07-02T03:31:29.639Z,0
2023-07-02T03:36:30.493Z,0
2023-07-02T03:41:31.383Z,0
2023-07-02T03:46:32.185Z,0
2023-07-02T03:51:33.187Z,0
2023-07-02T03:56:34.247Z,0
2023-07-02T04:01:35.129Z,0
2023-07-02T04:06:36.336Z,0
2023-07-02T04:11:37.036Z,0
2023-07-02T04:16:38.221Z,0
2023-07-02T04:21:39.295Z,0
2023-07-02T04:27:03.697Z,0
2023-07-02T04:32:28.468Z,0
2023-07-02T04:37:29.467Z,0
2023-07-02T04:42:30.287Z,45.6
2023-07-02T04:47:31.294Z,68.8
2023-07-02T04:52:32.346Z,66.3
2023-07-02T04:57:33.361Z,53.2
2023-07-02T05:02:34.320Z,90.8
2023-07-02T05:07:35.288Z,68.9
2023-07-02T05:12:36.042Z,127
2023-07-02T05:17:36.939Z,53.7
2023-07-02T05:22:37.850Z,48.3
2023-07-02T05:27:38.830Z,35.8
2023-07-02T05:32:39.652Z,37.5
2023-07-02T05:37:40.620Z,138.7
2023-07-02T05:42:41.489Z,146
2023-07-02T05:47:42.481Z,122.4
2023-07-02T05:52:43.333Z,90.5
2023-07-02T05:57:44.321Z,41.4
2023-07-02T06:02:45.353Z,61.6
2023-07-02T06:07:46.344Z,90
2023-07-02T06:12:47.157Z,62.6
2023-07-02T06:17:48.004Z,96.4
2023-07-02T06:22:48.986Z,114.7
2023-07-02T06:27:49.925Z,100.5
2023-07-02T06:32:50.743Z,115.8
2023-07-02T06:37:51.752Z,68.6
2023-07-02T06:42:52.504Z,168.7
2023-07-02T06:47:53.443Z,121.8
2023-07-02T06:52:55.417Z,115.4
2023-07-02T06:57:56.471Z,134
2023-07-02T07:02:57.664Z,126.7
2023-07-02T07:07:58.598Z,118.5
2023-07-02T07:12:59.452Z,104.4
2023-07-02T07:18:00.392Z,113.7
2023-07-02T07:23:01.376Z,145.8
2023-07-02T07:28:03.310Z,123.9
2023-07-02T07:33:04.210Z,91
2023-07-02T07:38:05.782Z,136.9
2023-07-02T07:43:06.542Z,121.9
2023-07-02T07:48:07.545Z,139.1
2023-07-02T07:53:08.888Z,150.4
2023-07-02T07:58:09.755Z,128.8
2023-07-02T08:03:11.030Z,120.5
2023-07-02T08:08:12.319Z,114.3
2023-07-02T08:13:13.323Z,142
2023-07-02T08:18:14.401Z,147.7
2023-07-02T08:23:15.436Z,169.3
2023-07-02T08:28:16.236Z,194.6
2023-07-02T08:33:17.286Z,197.4
2023-07-02T08:38:18.104Z,157.8
2023-07-02T08:43:18.870Z,196.2
2023-07-02T08:48:19.791Z,189.7
2023-07-02T08:53:20.990Z,233.1
2023-07-02T08:58:22.102Z,304.4
2023-07-02T09:03:23.306Z,180.8
2023-07-02T09:08:24.606Z,203.7
2023-07-02T09:13:25.456Z,564.1
2023-07-02T09:18:26.466Z,612.1
2023-07-02T09:23:27.378Z,528.8
2023-07-02T09:28:28.381Z,555.4
2023-07-02T09:33:29.603Z,332.8
2023-07-02T09:38:31.141Z,208.4
2023-07-02T09:43:32.055Z,218.8
2023-07-02T09:48:32.988Z,541.3
2023-07-02T09:53:33.959Z,554.3
2023-07-02T09:58:35.168Z,535.1
2023-07-02T10:03:38.934Z,537
2023-07-02T10:08:40.129Z,534.7
2023-07-02T10:13:41.147Z,547.1
2023-07-02T10:18:42.118Z,544.2
2023-07-02T10:23:43.123Z,563.7
2023-07-02T10:28:44.138Z,570.6
2023-07-02T10:33:44.923Z,540.6
2023-07-02T10:38:46.230Z,580.4
2023-07-02T10:43:47.638Z,560.1
2023-07-02T10:48:49.930Z,579.8
2023-07-02T10:53:51.060Z,599.8
2023-07-02T10:58:53.224Z,567.5
2023-07-02T11:03:54.259Z,606.6
2023-07-02T11:08:55.214Z,574.7
2023-07-02T11:13:57.056Z,586.3
2023-07-02T11:18:57.958Z,512.9
2023-07-02T11:23:59.127Z,608.7
2023-07-02T11:29:00.033Z,590.7
2023-07-02T11:34:01.380Z,614.3
2023-07-02T11:39:02.408Z,608
2023-07-02T11:44:03.287Z,590.8
2023-07-02T11:49:04.188Z,577.6
2023-07-02T11:54:05.001Z,583.2
2023-07-02T11:59:05.986Z,553.6
2023-07-02T12:04:06.842Z,607.4
2023-07-02T12:09:07.630Z,608.9
2023-07-02T12:14:08.922Z,607.1
2023-07-02T12:19:10.283Z,582.3
2023-07-02T12:24:11.140Z,217.6
2023-07-02T12:29:12.032Z,217.6
2023-07-02T12:34:12.944Z,562.5
2023-07-02T12:39:13.723Z,557
2023-07-02T12:44:14.711Z,538.3
2023-07-02T12:49:15.521Z,533.8
2023-07-02T12:54:16.501Z,540.1
2023-07-02T12:59:17.654Z,533.9
2023-07-02T13:04:18.744Z,546.2
2023-07-02T13:09:20.195Z,535.1
2023-07-02T13:14:21.341Z,498.5
2023-07-02T13:19:22.397Z,506.2
2023-07-02T13:24:23.528Z,513
2023-07-02T13:29:24.368Z,501.4
2023-07-02T13:34:25.645Z,520.8
2023-07-02T13:39:26.478Z,513.2
2023-07-02T13:44:27.507Z,509.3
2023-07-02T13:49:28.783Z,481.4
2023-07-02T13:54:29.729Z,507.7
2023-07-02T13:59:30.798Z,486.9
2023-07-02T14:04:31.823Z,480.8
2023-07-02T14:09:33.514Z,480.4
2023-07-02T14:14:34.347Z,467.8
2023-07-02T14:19:35.909Z,477.1
2023-07-02T14:24:36.845Z,382.7
2023-07-02T14:29:37.813Z,441.2
2023-07-02T14:34:38.905Z,446.5
2023-07-02T14:39:41.930Z,450.4
2023-07-02T14:44:44.984Z,410.6
2023-07-02T14:49:46.220Z,444.5
2023-07-02T14:54:47.268Z,370.3
2023-07-02T14:59:48.128Z,446.1
2023-07-02T15:04:49.320Z,482
2023-07-02T15:09:50.484Z,461.2
2023-07-02T15:14:51.527Z,429.1
2023-07-02T15:19:53.013Z,403.4
2023-07-02T15:24:54.325Z,334.4
2023-07-02T15:29:55.529Z,342.1
2023-07-02T15:34:56.402Z,362.8
2023-07-02T15:39:57.515Z,356
2023-07-02T15:44:58.684Z,350
2023-07-02T15:50:05.148Z,338.5
2023-07-02T15:55:14.350Z,317.1
2023-07-02T16:00:17.427Z,308.4
2023-07-02T16:05:21.123Z,300
2023-07-02T16:10:22.252Z,68.4
2023-07-02T16:15:24.995Z,308.8
2023-07-02T16:20:27.157Z,272.2
2023-07-02T16:25:28.751Z,84.4
2023-07-02T16:30:29.916Z,282.8
2023-07-02T16:35:30.963Z,185.4
2023-07-02T16:40:32.088Z,81.5
2023-07-02T16:45:33.242Z,71.9
2023-07-02T16:50:35.025Z,108.5
2023-07-02T16:55:35.872Z,223.9
2023-07-02T17:00:36.832Z,133.6
2023-07-02T17:05:38.036Z,61.4
2023-07-02T17:10:39.039Z,188.4
2023-07-02T18:08:49.417Z,45
2023-07-02T18:10:11.802Z,45
2023-07-02T18:15:18.188Z,32.9
2023-07-02T18:20:20.727Z,31.1
2023-07-02T18:25:22.712Z,27.7
2023-07-02T18:30:24.690Z,25.9
2023-07-02T18:35:27.765Z,33.8
2023-07-02T18:40:28.888Z,28.7
2023-07-02T18:45:30.090Z,24.2
2023-07-02T18:50:31.111Z,24.5
2023-07-02T18:55:31.992Z,25
2023-07-02T19:00:32.941Z,25.4
2023-07-02T19:05:34.268Z,20.2
2023-07-02T19:10:37.135Z,19
2023-07-02T19:15:39.629Z,16.3
2023-07-02T19:20:41.824Z,13.1
2023-07-02T19:25:43.476Z,10.4
2023-07-02T19:30:44.834Z,8.9
2023-07-02T19:35:46.200Z,9.5
2023-07-02T19:40:47.144Z,10
2023-07-02T19:45:48.324Z,10.2
2023-07-02T19:50:49.846Z,9.5
2023-07-02T19:55:51.400Z,3.6
2023-07-02T20:00:52.455Z,4.2
2023-07-02T20:05:54.055Z,10.1
2023-07-02T20:10:55.328Z,10.1
2023-07-02T20:15:56.679Z,10.1
2023-07-02T20:20:58.265Z,10.1
2023-07-02T20:25:59.713Z,10.1
2023-07-02T20:31:00.909Z,10.1
2023-07-02T20:36:02.118Z,10.1
2023-07-02T20:41:03.120Z,10.1
2023-07-02T20:46:04.180Z,10.1
2023-07-02T20:51:05.320Z,0
2023-07-02T20:56:06.352Z,0
